sensor_id;sensor_type;location;lat;lon;timestamp;temperature;humidity
318;DHT22;146;53.448;10.228;2024-01-10T00:02:19;-5.10;1.00
318;DHT22;146;53.448;10.228;2024-01-10T00:05:12;-5.10;1.00
318;DHT22;146;53.448;10.228;2024-01-10T00:08:03;-5.20;1.00
318;DHT22;146;53.448;10.228;2024-01-10T00:10:54;-5.20;1.00
318;DHT22;146;53.448;10.228;2024-01-10T00:13:41;-5.30;1.00
318;DHT22;146;53.448;10.228;2024-01-10T00:16:32;-5.30;1.00
318;DHT22;146;53.448;10.228;2024-01-10T00:19:34;-5.30;1.00
318;DHT22;146;53.448;10.228;2024-01-10T00:22:21;-5.40;1.00
318;DHT22;146;53.448;10.228;2024-01-10T00:25:22;-5.30;1.00
318;DHT22;146;53.448;10.228;2024-01-10T00:28:10;-5.40;1.00
318;DHT22;146;53.448;10.228;2024-01-10T00:31:00;-5.40;1.00
318;DHT22;146;53.448;10.228;2024-01-10T00:33:50;-5.40;1.00
318;DHT22;146;53.448;10.228;2024-01-10T00:36:37;-5.40;1.00
318;DHT22;146;53.448;10.228;2024-01-10T00:39:27;-5.40;1.00
318;DHT22;146;53.448;10.228;2024-01-10T00:42:20;-5.30;1.00
318;DHT22;146;53.448;10.228;2024-01-10T09:41:55;-2.50;1.00
318;DHT22;146;53.448;10.228;2024-01-10T09:44:43;-2.50;1.00
318;DHT22;146;53.448;10.228;2024-01-10T09:47:33;-2.40;1.00
318;DHT22;146;53.448;10.228;2024-01-10T09:50:23;-2.30;1.00
318;DHT22;146;53.448;10.228;2024-01-10T09:53:22;-2.30;1.00
318;DHT22;146;53.448;10.228;2024-01-10T09:56:13;-2.40;1.00
318;DHT22;146;53.448;10.228;2024-01-10T09:59:02;-2.50;1.00
318;DHT22;146;53.448;10.228;2024-01-10T10:01:51;-2.50;1.00
318;DHT22;146;53.448;10.228;2024-01-10T10:04:40;-2.60;1.00
318;DHT22;146;53.448;10.228;2024-01-10T10:07:29;-2.60;1.00
318;DHT22;146;53.448;10.228;2024-01-10T10:10:34;-2.50;1.00
318;DHT22;146;53.448;10.228;2024-01-10T10:13:33;-2.40;1.00
318;DHT22;146;53.448;10.228;2024-01-10T10:16:31;-2.40;1.00
318;DHT22;146;53.448;10.228;2024-01-10T10:19:22;-2.40;1.00
318;DHT22;146;53.448;10.228;2024-01-10T10:22:28;-2.50;1.00
318;DHT22;146;53.448;10.228;2024-01-10T10:25:27;-2.40;1.00
318;DHT22;146;53.448;10.228;2024-01-10T10:28:15;-2.30;1.00
318;DHT22;146;53.448;10.228;2024-01-10T10:31:05;-2.20;1.00
318;DHT22;146;53.448;10.228;2024-01-10T10:33:54;-2.10;1.00
318;DHT22;146;53.448;10.228;2024-01-10T10:36:42;-2.00;1.00
318;DHT22;146;53.448;10.228;2024-01-10T10:39:29;-2.00;1.00
318;DHT22;146;53.448;10.228;2024-01-10T10:42:17;-1.90;1.00
318;DHT22;146;53.448;10.228;2024-01-10T10:45:15;-2.00;1.00
318;DHT22;146;53.448;10.228;2024-01-10T10:48:03;-1.90;1.00
318;DHT22;146;53.448;10.228;2024-01-10T10:56:57;-1.80;1.00
318;DHT22;146;53.448;10.228;2024-01-10T10:59:49;-2.00;1.00
318;DHT22;146;53.448;10.228;2024-01-10T11:02:37;-2.00;1.00
318;DHT22;146;53.448;10.228;2024-01-10T11:05:31;-2.00;1.00
318;DHT22;146;53.448;10.228;2024-01-10T11:08:22;-2.00;1.00
318;DHT22;146;53.448;10.228;2024-01-10T11:15:07;-1.90;1.00
318;DHT22;146;53.448;10.228;2024-01-10T11:21:36;-1.80;1.00
318;DHT22;146;53.448;10.228;2024-01-10T11:24:39;-1.80;1.00
318;DHT22;146;53.448;10.228;2024-01-10T11:31:13;-1.70;1.00
318;DHT22;146;53.448;10.228;2024-01-10T11:34:06;-1.60;1.00
318;DHT22;146;53.448;10.228;2024-01-10T11:37:16;-1.70;1.00
318;DHT22;146;53.448;10.228;2024-01-10T11:40:08;-1.70;1.00
318;DHT22;146;53.448;10.228;2024-01-10T11:43:01;-1.80;1.00
318;DHT22;146;53.448;10.228;2024-01-10T11:46:03;-1.80;1.00
318;DHT22;146;53.448;10.228;2024-01-10T11:48:55;-1.90;1.00
318;DHT22;146;53.448;10.228;2024-01-10T11:51:43;-1.90;1.00
318;DHT22;146;53.448;10.228;2024-01-10T11:54:40;-2.00;1.00
318;DHT22;146;53.448;10.228;2024-01-10T11:57:29;-2.00;1.00
318;DHT22;146;53.448;10.228;2024-01-10T12:00:18;-2.10;1.00
318;DHT22;146;53.448;10.228;2024-01-10T12:03:14;-2.10;1.00
318;DHT22;146;53.448;10.228;2024-01-10T12:10:10;-2.10;1.00
318;DHT22;146;53.448;10.228;2024-01-10T12:36:50;-1.80;1.00
318;DHT22;146;53.448;10.228;2024-01-10T12:50:00;-1.90;1.00
318;DHT22;146;53.448;10.228;2024-01-10T12:56:36;-1.90;1.00
318;DHT22;146;53.448;10.228;2024-01-10T12:59:29;-1.90;1.00
318;DHT22;146;53.448;10.228;2024-01-10T13:02:16;-1.90;1.00
318;DHT22;146;53.448;10.228;2024-01-10T13:05:04;-1.80;1.00
318;DHT22;146;53.448;10.228;2024-01-10T13:08:19;-1.80;1.00
318;DHT22;146;53.448;10.228;2024-01-10T13:13:45;-1.80;1.00
318;DHT22;146;53.448;10.228;2024-01-10T13:17:03;-1.80;1.00
318;DHT22;146;53.448;10.228;2024-01-10T13:23:11;-1.60;1.00
318;DHT22;146;53.448;10.228;2024-01-10T13:26:01;-1.50;1.00
318;DHT22;146;53.448;10.228;2024-01-10T13:28:55;-1.40;1.00
318;DHT22;146;53.448;10.228;2024-01-10T13:31:48;-1.30;1.00
318;DHT22;146;53.448;10.228;2024-01-10T13:41:20;-1.00;1.00
318;DHT22;146;53.448;10.228;2024-01-10T13:44:08;-0.90;1.00
318;DHT22;146;53.448;10.228;2024-01-10T13:47:31;-0.80;1.00
318;DHT22;146;53.448;10.228;2024-01-10T13:53:22;-0.70;1.00
318;DHT22;146;53.448;10.228;2024-01-10T13:56:16;-0.80;1.00
318;DHT22;146;53.448;10.228;2024-01-10T14:05:30;-0.70;1.00
318;DHT22;146;53.448;10.228;2024-01-10T14:08:26;-0.70;1.00
318;DHT22;146;53.448;10.228;2024-01-10T14:16:35;-0.70;1.00
318;DHT22;146;53.448;10.228;2024-01-10T14:23:34;-0.70;1.00
318;DHT22;146;53.448;10.228;2024-01-10T14:26:31;-0.70;1.00
318;DHT22;146;53.448;10.228;2024-01-10T14:33:29;-0.80;1.00
318;DHT22;146;53.448;10.228;2024-01-10T14:36:16;-0.80;1.00
318;DHT22;146;53.448;10.228;2024-01-10T14:39:20;-0.80;1.00
318;DHT22;146;53.448;10.228;2024-01-10T14:44:43;-0.80;1.00
318;DHT22;146;53.448;10.228;2024-01-10T14:47:40;-0.80;1.00
318;DHT22;146;53.448;10.228;2024-01-10T14:50:30;-0.80;1.00
318;DHT22;146;53.448;10.228;2024-01-10T14:57:01;-0.90;1.00
318;DHT22;146;53.448;10.228;2024-01-10T15:00:03;-1.00;1.00
318;DHT22;146;53.448;10.228;2024-01-10T15:02:54;-1.00;1.00
318;DHT22;146;53.448;10.228;2024-01-10T15:06:00;-1.00;1.00
318;DHT22;146;53.448;10.228;2024-01-10T15:09:05;-1.00;1.00
318;DHT22;146;53.448;10.228;2024-01-10T15:18:59;-1.20;1.00
318;DHT22;146;53.448;10.228;2024-01-10T15:24:28;-1.20;1.00
318;DHT22;146;53.448;10.228;2024-01-10T15:33:31;-1.30;1.00
318;DHT22;146;53.448;10.228;2024-01-10T15:36:23;-1.30;1.00
318;DHT22;146;53.448;10.228;2024-01-10T15:45:34;-1.50;1.00
318;DHT22;146;53.448;10.228;2024-01-10T15:52:10;-1.50;1.00
318;DHT22;146;53.448;10.228;2024-01-10T15:55:15;-1.40;1.00
318;DHT22;146;53.448;10.228;2024-01-10T15:58:24;-1.30;1.00
318;DHT22;146;53.448;10.228;2024-01-10T16:01:14;-1.40;1.00
318;DHT22;146;53.448;10.228;2024-01-10T16:04:24;-1.50;1.00
318;DHT22;146;53.448;10.228;2024-01-10T16:07:16;-1.50;1.00
318;DHT22;146;53.448;10.228;2024-01-10T16:10:07;-1.50;1.00
318;DHT22;146;53.448;10.228;2024-01-10T16:16:39;-1.50;1.00
318;DHT22;146;53.448;10.228;2024-01-10T16:19:26;-1.50;1.00
318;DHT22;146;53.448;10.228;2024-01-10T18:44:44;-1.90;1.00
318;DHT22;146;53.448;10.228;2024-01-10T18:47:31;-1.80;1.00
318;DHT22;146;53.448;10.228;2024-01-10T18:50:21;-1.80;1.00
318;DHT22;146;53.448;10.228;2024-01-10T18:53:08;-1.80;1.00
318;DHT22;146;53.448;10.228;2024-01-10T18:56:01;-1.80;1.00
318;DHT22;146;53.448;10.228;2024-01-10T18:58:48;-1.80;1.00
318;DHT22;146;53.448;10.228;2024-01-10T19:05:34;-1.80;1.00
318;DHT22;146;53.448;10.228;2024-01-10T19:08:21;-1.90;1.00
318;DHT22;146;53.448;10.228;2024-01-10T19:11:14;-2.00;1.00
318;DHT22;146;53.448;10.228;2024-01-10T19:14:01;-2.00;1.00
318;DHT22;146;53.448;10.228;2024-01-10T19:17:09;-1.90;1.00
318;DHT22;146;53.448;10.228;2024-01-10T19:19:57;-1.90;1.00
318;DHT22;146;53.448;10.228;2024-01-10T19:22:48;-1.90;1.00
318;DHT22;146;53.448;10.228;2024-01-10T19:25:54;-1.80;1.00
318;DHT22;146;53.448;10.228;2024-01-10T19:28:42;-1.80;1.00
318;DHT22;146;53.448;10.228;2024-01-10T19:31:35;-1.80;1.00
318;DHT22;146;53.448;10.228;2024-01-10T19:34:47;-1.80;1.00
318;DHT22;146;53.448;10.228;2024-01-10T19:37:34;-1.80;1.00
318;DHT22;146;53.448;10.228;2024-01-10T19:40:30;-1.90;1.00
318;DHT22;146;53.448;10.228;2024-01-10T19:43:24;-1.90;1.00
318;DHT22;146;53.448;10.228;2024-01-10T19:46:26;-1.90;1.00
318;DHT22;146;53.448;10.228;2024-01-10T19:53:07;-1.90;1.00
318;DHT22;146;53.448;10.228;2024-01-10T19:56:22;-1.80;1.00
318;DHT22;146;53.448;10.228;2024-01-10T19:59:53;-1.80;1.00
318;DHT22;146;53.448;10.228;2024-01-10T20:03:20;-1.80;1.00
318;DHT22;146;53.448;10.228;2024-01-10T20:10:11;-1.90;1.00
318;DHT22;146;53.448;10.228;2024-01-10T20:13:18;-1.80;1.00
